createdAt,value
2019-05-05T00:01:50.596Z,100.00
2019-05-05T00:04:39.856Z,100.00
2019-05-05T00:07:06.892Z,100.00
2019-05-05T00:09:34.776Z,100.00
2019-05-05T00:12:28.492Z,100.00
2019-05-05T00:15:18.934Z,100.00
2019-05-05T00:17:45.881Z,100.00
2019-05-05T00:20:14.474Z,100.00
2019-05-05T00:22:41.598Z,100.00
2019-05-05T00:25:08.767Z,100.00
2019-05-05T00:27:35.827Z,100.00
2019-05-05T00:30:05.280Z,100.00
2019-05-05T00:32:34.877Z,100.00
2019-05-05T00:35:04.229Z,100.00
2019-05-05T00:37:30.932Z,100.00
2019-05-05T00:39:57.992Z,100.00
2019-05-05T00:42:25.019Z,100.00
2019-05-05T00:44:51.961Z,100.00
2019-05-05T00:47:45.541Z,100.00
2019-05-05T00:50:16.271Z,100.00
2019-05-05T00:52:44.523Z,100.00
2019-05-05T00:55:11.931Z,100.00
2019-05-05T00:57:39.004Z,100.00
2019-05-05T01:00:15.202Z,100.00
2019-05-05T01:02:45.671Z,100.00
2019-05-05T01:05:27.424Z,100.00
2019-05-05T01:07:56.175Z,100.00
2019-05-05T01:10:24.815Z,100.00
2019-05-05T01:12:51.959Z,100.00
2019-05-05T01:15:19.311Z,100.00
2019-05-05T01:17:46.311Z,100.00
2019-05-05T01:20:14.682Z,100.00
2019-05-05T01:22:41.760Z,100.00
2019-05-05T01:25:09.006Z,100.00
2019-05-05T01:27:35.988Z,100.00
2019-05-05T01:30:04.869Z,100.00
2019-05-05T01:32:36.183Z,100.00
2019-05-05T01:35:05.387Z,100.00
2019-05-05T01:37:38.108Z,100.00
2019-05-05T01:40:25.708Z,100.00
2019-05-05T01:42:54.751Z,100.00
2019-05-05T01:45:21.819Z,100.00
2019-05-05T01:47:49.277Z,100.00
2019-05-05T01:50:20.995Z,100.00
2019-05-05T01:52:45.211Z,100.00
2019-05-05T01:55:14.529Z,100.00
2019-05-05T01:57:41.493Z,100.00
2019-05-05T02:00:08.833Z,100.00
2019-05-05T02:02:36.139Z,100.00
2019-05-05T02:05:04.593Z,100.00
2019-05-05T02:07:31.779Z,100.00
2019-05-05T02:09:58.750Z,100.00
2019-05-05T02:12:25.866Z,100.00
2019-05-05T02:14:54.949Z,100.00
2019-05-05T02:17:21.748Z,100.00
2019-05-05T02:19:48.720Z,100.00
2019-05-05T02:22:15.725Z,100.00
2019-05-05T02:24:44.408Z,100.00
2019-05-05T02:27:11.675Z,100.00
2019-05-05T02:29:49.980Z,100.00
2019-05-05T02:32:36.136Z,100.00
2019-05-05T02:35:06.687Z,100.00
2019-05-05T02:37:35.711Z,100.00
2019-05-05T02:40:07.243Z,100.00
2019-05-05T02:42:32.069Z,100.00
2019-05-05T02:45:05.385Z,100.00
2019-05-05T02:47:55.199Z,100.00
2019-05-05T02:50:25.132Z,100.00
2019-05-05T02:52:53.851Z,100.00
2019-05-05T02:55:23.481Z,100.00
2019-05-05T02:57:50.813Z,100.00
2019-05-05T03:00:45.383Z,100.00
2019-05-05T03:03:14.699Z,100.00
2019-05-05T03:05:43.450Z,100.00
2019-05-05T03:11:44.433Z,100.00
2019-05-05T03:14:14.311Z,100.00
2019-05-05T03:16:43.525Z,100.00
2019-05-05T03:19:10.850Z,100.00
2019-05-05T03:21:38.516Z,100.00
2019-05-05T03:24:11.911Z,100.00
2019-05-05T03:26:39.703Z,100.00
2019-05-05T03:29:13.733Z,100.00
2019-05-05T03:31:40.605Z,100.00
2019-05-05T03:34:08.281Z,100.00
2019-05-05T03:36:35.375Z,100.00
2019-05-05T03:39:05.190Z,100.00
2019-05-05T03:41:45.239Z,100.00
2019-05-05T03:44:24.904Z,100.00
2019-05-05T03:46:54.380Z,100.00
2019-05-05T03:49:21.836Z,100.00
2019-05-05T03:51:48.844Z,100.00
2019-05-05T03:54:15.913Z,100.00
2019-05-05T03:56:44.180Z,100.00
2019-05-05T03:59:11.282Z,100.00
2019-05-05T04:01:45.188Z,100.00
2019-05-05T04:04:28.164Z,100.00
2019-05-05T04:06:55.195Z,100.00
2019-05-05T04:09:24.245Z,100.00
2019-05-05T04:11:51.404Z,100.00
2019-05-05T04:14:18.709Z,100.00
2019-05-05T04:17:05.378Z,100.00
2019-05-05T04:19:35.095Z,100.00
2019-05-05T04:22:04.102Z,100.00
2019-05-05T04:24:31.018Z,100.00
2019-05-05T04:26:58.147Z,100.00
2019-05-05T04:29:25.103Z,100.00
2019-05-05T04:31:53.984Z,100.00
2019-05-05T04:34:20.964Z,100.00
2019-05-05T04:36:47.931Z,100.00
2019-05-05T04:39:14.883Z,100.00
2019-05-05T04:41:43.919Z,100.00
2019-05-05T04:44:11.042Z,100.00
2019-05-05T04:46:37.984Z,100.00
2019-05-05T04:49:17.895Z,100.00
2019-05-05T04:51:50.030Z,100.00
2019-05-05T04:54:29.683Z,100.00
2019-05-05T04:56:56.666Z,100.00
2019-05-05T04:59:23.741Z,100.00
2019-05-05T05:01:54.711Z,100.00
2019-05-05T05:04:50.432Z,100.00
2019-05-05T05:07:18.199Z,100.00
2019-05-05T05:09:45.174Z,100.00
2019-05-05T05:12:14.505Z,100.00
2019-05-05T05:14:41.203Z,100.00
2019-05-05T05:17:14.119Z,100.00
2019-05-05T05:19:41.291Z,100.00
2019-05-05T05:22:08.263Z,100.00
2019-05-05T05:24:35.224Z,100.00
2019-05-05T05:27:02.198Z,100.00
2019-05-05T05:29:29.156Z,100.00
2019-05-05T05:31:56.116Z,100.00
2019-05-05T05:34:23.913Z,100.00
2019-05-05T05:36:51.073Z,100.00
2019-05-05T05:39:35.220Z,100.00
2019-05-05T05:43:04.681Z,100.00
2019-05-05T05:46:09.351Z,100.00
2019-05-05T05:48:49.416Z,100.00
2019-05-05T05:51:19.431Z,100.00
2019-05-05T05:53:46.557Z,100.00
2019-05-05T05:56:13.635Z,100.00
2019-05-05T05:58:40.745Z,100.00
2019-05-05T06:01:07.796Z,100.00
2019-05-05T06:03:34.866Z,100.00
2019-05-05T06:06:01.872Z,100.00
2019-05-05T06:08:30.038Z,100.00
2019-05-05T06:10:57.154Z,100.00
2019-05-05T06:13:24.338Z,100.00
2019-05-05T06:15:53.420Z,100.00
2019-05-05T06:18:20.355Z,100.00
2019-05-05T06:20:59.425Z,100.00
2019-05-05T06:23:26.575Z,100.00
2019-05-05T06:25:55.084Z,100.00
2019-05-05T06:28:23.705Z,100.00
2019-05-05T06:30:51.032Z,100.00
2019-05-05T06:33:18.042Z,100.00
2019-05-05T06:35:45.026Z,100.00
2019-05-05T06:38:13.664Z,100.00
2019-05-05T06:41:06.586Z,100.00
2019-05-05T06:43:59.093Z,100.00
2019-05-05T06:46:29.058Z,100.00
2019-05-05T06:49:34.649Z,100.00
2019-05-05T06:52:03.860Z,100.00
2019-05-05T06:54:30.727Z,100.00
2019-05-05T06:56:57.779Z,100.00
2019-05-05T06:59:24.825Z,100.00
2019-05-05T07:01:53.576Z,100.00
2019-05-05T07:04:20.702Z,100.00
2019-05-05T07:06:54.011Z,100.00
2019-05-05T07:09:16.727Z,100.00
2019-05-05T07:11:43.808Z,100.00
2019-05-05T07:14:10.779Z,100.00
2019-05-05T07:16:37.792Z,100.00
2019-05-05T07:19:04.793Z,100.00
2019-05-05T07:21:34.142Z,100.00
2019-05-05T07:24:00.739Z,100.00
2019-05-05T07:26:27.717Z,100.00
2019-05-05T07:28:54.729Z,100.00
2019-05-05T07:31:23.680Z,100.00
2019-05-05T07:33:50.574Z,100.00
2019-05-05T07:36:51.216Z,100.00
2019-05-05T07:39:18.159Z,100.00
2019-05-05T07:41:45.334Z,100.00
2019-05-05T07:44:25.060Z,100.00
2019-05-05T07:46:41.209Z,100.00
2019-05-05T07:49:08.284Z,100.00
2019-05-05T07:51:35.274Z,100.00
2019-05-05T07:54:03.925Z,100.00
2019-05-05T07:56:31.060Z,100.00
2019-05-05T07:58:58.048Z,100.00
2019-05-05T08:01:25.035Z,100.00
2019-05-05T08:03:53.853Z,100.00
2019-05-05T08:06:20.904Z,100.00
2019-05-05T08:08:47.971Z,100.00
2019-05-05T08:11:14.975Z,99.48
2019-05-05T08:13:44.137Z,99.23
2019-05-05T08:16:24.145Z,98.96
2019-05-05T08:19:07.180Z,98.96
2019-05-05T08:21:34.727Z,98.81
2019-05-05T08:24:14.081Z,98.15
2019-05-05T08:27:00.787Z,97.88
2019-05-05T08:29:34.705Z,97.58
2019-05-05T08:32:20.367Z,96.80
2019-05-05T08:34:57.278Z,94.82
2019-05-05T08:37:16.184Z,91.85
2019-05-05T08:39:44.702Z,89.68
2019-05-05T08:42:11.821Z,88.97
2019-05-05T08:44:38.790Z,89.81
2019-05-05T08:47:07.610Z,87.89
2019-05-05T08:49:34.845Z,88.66
2019-05-05T08:52:03.940Z,87.78
2019-05-05T08:54:30.805Z,87.21
2019-05-05T08:56:57.768Z,88.25
2019-05-05T08:59:24.734Z,88.32
2019-05-05T09:01:54.105Z,88.42
2019-05-05T09:04:21.331Z,87.53
2019-05-05T09:06:48.701Z,87.68
2019-05-05T09:09:16.870Z,88.10
2019-05-05T09:11:44.027Z,87.84
2019-05-05T09:14:11.052Z,86.98
2019-05-05T09:16:38.059Z,87.84
2019-05-05T09:19:11.953Z,88.71
2019-05-05T09:21:38.977Z,87.45
2019-05-05T09:24:30.410Z,88.21
2019-05-05T09:27:03.645Z,88.81
2019-05-05T09:29:34.698Z,88.26
2019-05-05T09:32:04.079Z,88.41
2019-05-05T09:34:31.545Z,86.91
2019-05-05T09:36:58.634Z,86.68
2019-05-05T09:39:25.579Z,87.60
2019-05-05T09:41:53.607Z,90.03
2019-05-05T09:44:20.761Z,93.72
2019-05-05T09:46:48.816Z,95.60
2019-05-05T09:49:15.763Z,94.14
2019-05-05T09:51:43.962Z,98.28
2019-05-05T09:54:14.487Z,100.00
2019-05-05T09:56:40.048Z,100.00
2019-05-05T09:59:07.042Z,100.00
2019-05-05T10:01:34.017Z,100.00
2019-05-05T10:04:07.784Z,100.00
2019-05-05T10:06:35.330Z,100.00
2019-05-05T10:09:02.291Z,100.00
2019-05-05T10:11:29.242Z,100.00
2019-05-05T10:13:56.227Z,100.00
2019-05-05T10:16:23.580Z,100.00
2019-05-05T10:18:50.644Z,100.00
2019-05-05T10:21:17.942Z,100.00
2019-05-05T10:23:47.176Z,100.00
2019-05-05T10:26:14.937Z,100.00
2019-05-05T10:28:44.347Z,100.00
2019-05-05T10:31:11.067Z,100.00
2019-05-05T10:33:41.928Z,100.00
2019-05-05T10:36:08.922Z,100.00
2019-05-05T10:38:37.803Z,100.00
2019-05-05T10:41:04.776Z,100.00
2019-05-05T10:43:31.791Z,100.00
2019-05-05T10:45:58.781Z,100.00
2019-05-05T10:48:26.878Z,99.72
2019-05-05T10:50:53.930Z,98.58
2019-05-05T10:53:20.877Z,99.39
2019-05-05T10:55:47.925Z,98.50
2019-05-05T10:58:14.937Z,96.76
2019-05-05T11:00:47.776Z,94.23
2019-05-05T11:03:15.343Z,91.49
2019-05-05T11:05:44.873Z,90.08
2019-05-05T11:08:13.672Z,90.19
2019-05-05T11:10:40.808Z,87.08
2019-05-05T11:13:07.863Z,87.10
2019-05-05T11:15:34.873Z,87.48
2019-05-05T11:18:03.994Z,87.91
2019-05-05T11:20:31.117Z,86.42
2019-05-05T11:22:59.730Z,86.27
2019-05-05T11:25:26.725Z,81.16
2019-05-05T11:27:55.302Z,79.73
2019-05-05T11:30:33.995Z,78.65
2019-05-05T11:33:34.458Z,78.74
2019-05-05T11:36:30.376Z,79.98
2019-05-05T11:38:57.346Z,82.88
2019-05-05T11:41:24.561Z,84.42
2019-05-05T11:43:53.338Z,88.11
2019-05-05T11:46:20.392Z,94.52
2019-05-05T11:48:47.405Z,97.83
2019-05-05T11:51:15.135Z,100.00
2019-05-05T11:53:44.522Z,100.00
2019-05-05T11:56:11.163Z,100.00
2019-05-05T11:58:38.123Z,100.00
2019-05-05T12:01:06.865Z,100.00
2019-05-05T12:03:34.157Z,100.00
2019-05-05T12:06:01.253Z,100.00
2019-05-05T12:08:28.216Z,100.00
2019-05-05T12:10:59.378Z,100.00
2019-05-05T12:13:26.357Z,97.58
2019-05-05T12:15:58.661Z,95.45
2019-05-05T12:18:25.682Z,92.42
2019-05-05T12:20:54.373Z,90.53
2019-05-05T12:23:23.953Z,91.79
2019-05-05T12:26:09.245Z,90.94
2019-05-05T12:28:41.132Z,91.47
2019-05-05T12:31:14.156Z,92.23
2019-05-05T12:33:41.240Z,90.32
2019-05-05T12:36:08.538Z,88.30
2019-05-05T12:38:35.596Z,89.84
2019-05-05T12:41:04.348Z,92.01
2019-05-05T12:43:33.867Z,91.19
2019-05-05T12:46:08.310Z,94.20
2019-05-05T12:48:35.807Z,93.40
2019-05-05T12:51:04.179Z,92.77
2019-05-05T12:53:31.314Z,92.89
2019-05-05T12:55:58.271Z,91.39
2019-05-05T12:58:25.258Z,91.61
2019-05-05T13:01:03.802Z,90.58
2019-05-05T13:03:31.131Z,89.74
2019-05-05T13:05:58.189Z,89.76
2019-05-05T13:08:25.156Z,89.88
2019-05-05T13:10:53.441Z,90.67
2019-05-05T13:13:20.484Z,87.90
2019-05-05T13:15:47.506Z,87.96
2019-05-05T13:18:14.531Z,89.16
2019-05-05T13:20:58.112Z,90.39
2019-05-05T13:23:44.727Z,93.17
2019-05-05T13:26:34.168Z,94.56
2019-05-05T13:29:01.130Z,96.28
2019-05-05T13:31:28.103Z,95.74
2019-05-05T13:33:55.128Z,95.07
2019-05-05T13:36:24.128Z,93.44
2019-05-05T13:38:52.101Z,91.18
2019-05-05T13:41:20.006Z,89.83
2019-05-05T13:43:47.002Z,88.92
2019-05-05T13:46:20.392Z,84.37
2019-05-05T13:48:47.421Z,81.21
2019-05-05T13:51:14.894Z,79.51
2019-05-05T13:53:41.984Z,79.82
2019-05-05T13:56:12.322Z,77.54
2019-05-05T13:58:37.971Z,79.80
2019-05-05T14:01:06.027Z,80.99
2019-05-05T14:03:40.393Z,85.14
2019-05-05T14:06:07.345Z,88.83
2019-05-05T14:08:36.326Z,91.38
2019-05-05T14:11:03.747Z,93.08
2019-05-05T14:13:34.164Z,92.69
2019-05-05T14:16:01.251Z,90.65
2019-05-05T14:18:28.269Z,89.73
2019-05-05T14:20:55.873Z,87.91
2019-05-05T14:23:24.016Z,87.06
2019-05-05T14:25:51.248Z,85.65
2019-05-05T14:28:18.378Z,85.90
2019-05-05T14:31:14.284Z,86.55
2019-05-05T14:33:49.713Z,84.94
2019-05-05T14:36:44.136Z,84.38
2019-05-05T14:39:12.137Z,87.30
2019-05-05T14:41:39.122Z,86.70
2019-05-05T14:44:06.075Z,88.40
2019-05-05T14:46:34.220Z,91.90
2019-05-05T14:49:05.585Z,93.76
2019-05-05T14:51:34.010Z,95.65
2019-05-05T14:57:33.595Z,99.22
2019-05-05T15:00:00.780Z,100.00
2019-05-05T15:02:37.009Z,100.00
2019-05-05T15:05:24.470Z,100.00
2019-05-05T15:08:04.657Z,100.00
2019-05-05T15:10:50.629Z,100.00
2019-05-05T15:13:17.958Z,100.00
2019-05-05T15:15:45.138Z,100.00
2019-05-05T15:18:12.115Z,100.00
2019-05-05T15:20:39.264Z,100.00
2019-05-05T15:23:06.237Z,100.00
2019-05-05T15:25:34.133Z,100.00
2019-05-05T15:28:01.437Z,100.00
2019-05-05T15:30:28.387Z,100.00
2019-05-05T15:32:58.630Z,100.00
2019-05-05T15:36:04.360Z,100.00
2019-05-05T15:38:31.481Z,100.00
2019-05-05T15:40:58.544Z,100.00
2019-05-05T15:43:28.471Z,99.42
2019-05-05T15:45:55.445Z,99.54
2019-05-05T15:48:22.509Z,98.18
2019-05-05T15:50:50.731Z,94.72
2019-05-05T15:53:17.695Z,94.40
2019-05-05T15:55:44.717Z,93.51
2019-05-05T15:58:14.005Z,92.53
2019-05-05T16:00:44.206Z,92.25
2019-05-05T16:03:13.448Z,91.12
2019-05-05T16:05:40.102Z,89.37
2019-05-05T16:08:07.279Z,86.16
2019-05-05T16:10:34.801Z,85.91
2019-05-05T16:13:01.882Z,84.85
2019-05-05T16:15:51.025Z,83.75
2019-05-05T16:18:26.364Z,81.84
2019-05-05T16:21:04.681Z,80.68
2019-05-05T16:23:36.058Z,79.05
2019-05-05T16:26:04.840Z,77.70
2019-05-05T16:28:50.062Z,77.93
2019-05-05T16:31:17.276Z,78.73
2019-05-05T16:33:44.278Z,78.93
2019-05-05T16:36:11.365Z,78.41
2019-05-05T16:38:38.609Z,78.49
2019-05-05T16:41:05.601Z,78.78
2019-05-05T16:43:33.743Z,79.22
2019-05-05T16:46:01.610Z,79.13
2019-05-05T16:48:28.579Z,80.38
2019-05-05T16:50:55.577Z,80.57
2019-05-05T16:53:35.566Z,81.10
2019-05-05T16:56:04.488Z,80.55
2019-05-05T16:58:33.443Z,80.11
2019-05-05T17:01:00.412Z,80.74
2019-05-05T17:03:27.481Z,81.01
2019-05-05T17:05:55.610Z,80.05
2019-05-05T17:08:24.451Z,80.17
2019-05-05T17:10:51.685Z,80.14
2019-05-05T17:13:33.502Z,79.33
2019-05-05T17:16:14.875Z,78.89
2019-05-05T17:18:56.736Z,77.88
2019-05-05T17:21:28.788Z,79.02
2019-05-05T17:23:55.784Z,79.86
2019-05-05T17:26:24.327Z,82.07
2019-05-05T17:28:51.391Z,80.41
2019-05-05T17:31:18.452Z,79.78
2019-05-05T17:33:45.696Z,80.13
2019-05-05T17:36:14.938Z,79.83
2019-05-05T17:38:43.759Z,79.97
2019-05-05T17:41:28.739Z,79.76
2019-05-05T17:44:05.185Z,79.63
2019-05-05T17:46:53.950Z,78.37
2019-05-05T17:49:51.637Z,78.81
2019-05-05T17:52:27.596Z,78.55
2019-05-05T17:54:56.899Z,79.22
2019-05-05T17:57:28.107Z,79.77
2019-05-05T17:59:55.287Z,80.47
2019-05-05T18:02:23.668Z,81.10
2019-05-05T18:04:50.920Z,80.14
2019-05-05T18:07:26.234Z,79.76
2019-05-05T18:10:28.237Z,77.69
2019-05-05T18:13:35.052Z,77.47
2019-05-05T18:16:04.575Z,76.64
2019-05-05T18:18:31.714Z,77.27
2019-05-05T18:21:04.388Z,76.97
2019-05-05T18:23:31.610Z,77.27
2019-05-05T18:25:58.570Z,77.55
2019-05-05T18:28:27.638Z,78.05
2019-05-05T18:30:54.649Z,78.44
2019-05-05T18:33:34.071Z,79.43
2019-05-05T18:36:01.009Z,80.41
2019-05-05T18:38:28.087Z,80.97
2019-05-05T18:41:06.447Z,80.77
2019-05-05T18:43:40.113Z,80.19
2019-05-05T18:46:07.363Z,81.21
2019-05-05T18:48:34.952Z,83.00
2019-05-05T18:51:03.847Z,83.83
2019-05-05T18:53:30.835Z,84.45
2019-05-05T18:55:57.969Z,85.11
2019-05-05T18:58:28.968Z,85.90
2019-05-05T19:01:13.535Z,86.40
2019-05-05T19:03:58.923Z,86.97
2019-05-05T19:06:44.527Z,88.34
2019-05-05T19:09:15.287Z,89.15
2019-05-05T19:11:43.598Z,89.97
2019-05-05T19:14:14.210Z,90.38
2019-05-05T19:16:41.357Z,91.60
2019-05-05T19:19:08.336Z,92.90
2019-05-05T19:21:38.676Z,94.64
2019-05-05T19:24:07.142Z,96.24
2019-05-05T19:26:34.150Z,96.85
2019-05-05T19:29:04.391Z,98.33
2019-05-05T19:31:32.049Z,99.58
2019-05-05T19:33:59.998Z,99.96
2019-05-05T19:36:27.523Z,99.94
2019-05-05T19:38:54.924Z,100.00
2019-05-05T19:41:23.816Z,100.00
2019-05-05T19:43:54.921Z,100.00
2019-05-05T19:46:27.143Z,100.00
2019-05-05T19:49:14.759Z,100.00
2019-05-05T19:51:44.668Z,100.00
2019-05-05T19:54:14.201Z,100.00
2019-05-05T19:56:40.822Z,100.00
2019-05-05T19:59:08.248Z,100.00
2019-05-05T20:01:37.834Z,100.00
2019-05-05T20:04:04.988Z,100.00
2019-05-05T20:06:32.133Z,100.00
2019-05-05T20:08:59.231Z,100.00
2019-05-05T20:11:29.499Z,99.93
2019-05-05T20:14:06.637Z,100.00
2019-05-05T20:16:34.145Z,100.00
2019-05-05T20:19:01.303Z,100.00
2019-05-05T20:21:28.860Z,100.00
2019-05-05T20:23:57.825Z,100.00
2019-05-05T20:26:25.477Z,100.00
2019-05-05T20:28:55.321Z,100.00
2019-05-05T20:31:21.385Z,100.00
2019-05-05T20:33:59.161Z,100.00
2019-05-05T20:36:26.862Z,100.00
2019-05-05T20:39:49.150Z,100.00
2019-05-05T20:42:17.215Z,100.00
2019-05-05T20:44:44.224Z,100.00
2019-05-05T20:47:11.257Z,100.00
2019-05-05T20:49:38.350Z,100.00
2019-05-05T20:52:05.494Z,100.00
2019-05-05T20:54:32.541Z,100.00
2019-05-05T20:56:59.674Z,100.00
2019-05-05T20:59:30.691Z,100.00
2019-05-05T21:01:57.493Z,100.00
2019-05-05T21:05:17.592Z,100.00
2019-05-05T21:07:45.496Z,100.00
2019-05-05T21:10:14.332Z,100.00
2019-05-05T21:12:42.626Z,100.00
2019-05-05T21:15:13.013Z,100.00
2019-05-05T21:17:59.542Z,100.00
2019-05-05T21:20:26.680Z,100.00
2019-05-05T21:23:05.189Z,100.00
2019-05-05T21:25:34.825Z,100.00
2019-05-05T21:28:03.371Z,100.00
2019-05-05T21:30:33.695Z,100.00
2019-05-05T21:33:01.372Z,100.00
2019-05-05T21:35:28.718Z,100.00
2019-05-05T21:37:55.818Z,100.00
2019-05-05T21:40:25.052Z,100.00
2019-05-05T21:42:54.206Z,100.00
2019-05-05T21:45:21.045Z,100.00
2019-05-05T21:47:48.090Z,100.00
2019-05-05T21:50:17.919Z,100.00
2019-05-05T21:52:49.662Z,100.00
2019-05-05T21:55:39.247Z,100.00
2019-05-05T21:58:25.360Z,100.00
2019-05-05T22:01:18.451Z,100.00
2019-05-05T22:04:05.032Z,100.00
2019-05-05T22:06:33.663Z,100.00
2019-05-05T22:09:03.914Z,100.00
2019-05-05T22:11:30.721Z,100.00
2019-05-05T22:17:29.832Z,100.00
2019-05-05T22:20:04.668Z,100.00
2019-05-05T22:22:36.387Z,100.00
2019-05-05T22:25:14.066Z,100.00
2019-05-05T22:27:40.861Z,100.00
2019-05-05T22:30:10.439Z,100.00
2019-05-05T22:32:37.029Z,100.00
2019-05-05T22:35:04.584Z,100.00
2019-05-05T22:37:31.745Z,100.00
2019-05-05T22:39:58.836Z,100.00
2019-05-05T22:42:25.944Z,100.00
2019-05-05T22:44:52.903Z,100.00
2019-05-05T22:47:20.040Z,100.00
2019-05-05T22:49:47.162Z,100.00
2019-05-05T22:52:14.572Z,100.00
2019-05-05T22:54:41.612Z,100.00
2019-05-05T22:57:50.043Z,100.00
2019-05-05T23:00:26.565Z,100.00
2019-05-05T23:03:33.428Z,100.00
2019-05-05T23:06:04.457Z,100.00
2019-05-05T23:08:34.882Z,100.00
2019-05-05T23:11:03.895Z,100.00
2019-05-05T23:13:30.799Z,100.00
2019-05-05T23:16:11.402Z,100.00
2019-05-05T23:18:38.594Z,100.00
2019-05-05T23:21:15.817Z,100.00
2019-05-05T23:23:51.665Z,100.00
2019-05-05T23:26:19.795Z,100.00
2019-05-05T23:28:46.869Z,100.00
2019-05-05T23:31:16.038Z,100.00
2019-05-05T23:33:43.964Z,100.00
2019-05-05T23:36:30.642Z,100.00
2019-05-05T23:38:57.591Z,100.00
2019-05-05T23:41:24.749Z,100.00
2019-05-05T23:43:54.286Z,100.00
2019-05-05T23:46:34.792Z,100.00
2019-05-05T23:49:04.129Z,100.00
2019-05-05T23:51:31.066Z,100.00
2019-05-05T23:53:58.023Z,100.00
2019-05-05T23:56:26.838Z,100.00
2019-05-05T23:58:54.854Z,100.00
